sensor_id;sensor_type;location;lat;lon;timestamp;pressure;altitude;pressure_sealevel;temperature;humidity
41624;BME280;27319;50.306;18.926;2022-12-16T00:03:08;97538.78;;;-1.88;94.83
41624;BME280;27319;50.306;18.926;2022-12-16T00:06:49;97559.03;;;-1.77;95.19
41624;BME280;27319;50.306;18.926;2022-12-16T00:09:49;97552.44;;;-1.83;94.99
41624;BME280;27319;50.306;18.926;2022-12-16T00:12:50;97557.69;;;-1.83;94.78
41624;BME280;27319;50.306;18.926;2022-12-16T00:15:51;97551.47;;;-1.82;94.96
41624;BME280;27319;50.306;18.926;2022-12-16T00:19:12;97552.31;;;-1.81;94.79
41624;BME280;27319;50.306;18.926;2022-12-16T00:23:13;97547.38;;;-1.86;94.84
41624;BME280;27319;50.306;18.926;2022-12-16T00:27:13;97562.53;;;-1.77;94.72
41624;BME280;27319;50.306;18.926;2022-12-16T00:31:14;97549.22;;;-1.75;94.46
41624;BME280;27319;50.306;18.926;2022-12-16T00:35:15;97531.84;;;-1.89;94.75
41624;BME280;27319;50.306;18.926;2022-12-16T00:39:16;97530.13;;;-1.90;95.25
41624;BME280;27319;50.306;18.926;2022-12-16T00:43:16;97519.50;;;-1.88;94.85
41624;BME280;27319;50.306;18.926;2022-12-16T00:47:17;97511.63;;;-1.88;94.74
41624;BME280;27319;50.306;18.926;2022-12-16T00:51:18;97518.97;;;-1.81;94.72
41624;BME280;27319;50.306;18.926;2022-12-16T00:55:19;97510.03;;;-1.78;94.59
41624;BME280;27319;50.306;18.926;2022-12-16T00:59:19;97520.97;;;-1.84;94.82
41624;BME280;27319;50.306;18.926;2022-12-16T01:03:20;97520.97;;;-1.84;94.86
41624;BME280;27319;50.306;18.926;2022-12-16T01:07:01;97512.38;;;-1.86;95.06
41624;BME280;27319;50.306;18.926;2022-12-16T01:10:22;97502.25;;;-1.80;94.98
41624;BME280;27319;50.306;18.926;2022-12-16T01:14:23;97500.66;;;-1.82;94.83
41624;BME280;27319;50.306;18.926;2022-12-16T01:18:23;97488.19;;;-1.91;95.02
41624;BME280;27319;50.306;18.926;2022-12-16T01:22:24;97480.69;;;-1.85;95.16
41624;BME280;27319;50.306;18.926;2022-12-16T01:26:24;97472.25;;;-1.77;95.12
41624;BME280;27319;50.306;18.926;2022-12-16T01:30:25;97464.41;;;-1.66;94.72
41624;BME280;27319;50.306;18.926;2022-12-16T01:34:26;97463.34;;;-1.87;95.13
41624;BME280;27319;50.306;18.926;2022-12-16T01:38:27;97467.88;;;-1.89;95.41
41624;BME280;27319;50.306;18.926;2022-12-16T01:42:33;97466.22;;;-1.90;95.71
41624;BME280;27319;50.306;18.926;2022-12-16T01:46:37;97459.88;;;-1.88;95.81
41624;BME280;27319;50.306;18.926;2022-12-16T01:50:37;97436.72;;;-1.83;95.65
41624;BME280;27319;50.306;18.926;2022-12-16T01:54:42;97418.63;;;-1.87;95.71
41624;BME280;27319;50.306;18.926;2022-12-16T01:58:41;97424.59;;;-1.96;96.04
41624;BME280;27319;50.306;18.926;2022-12-16T02:02:42;97412.56;;;-1.88;95.98
41624;BME280;27319;50.306;18.926;2022-12-16T02:06:23;97414.34;;;-1.88;95.61
41624;BME280;27319;50.306;18.926;2022-12-16T02:09:44;97421.91;;;-1.84;95.67
41624;BME280;27319;50.306;18.926;2022-12-16T02:16:57;97404.56;;;-1.86;96.13
41624;BME280;27319;50.306;18.926;2022-12-16T02:28:10;97386.72;;;-1.94;95.69
41624;BME280;27319;50.306;18.926;2022-12-16T02:31:40;97376.31;;;-1.95;95.67
41624;BME280;27319;50.306;18.926;2022-12-16T02:42:44;97369.31;;;-2.07;96.07
41624;BME280;27319;50.306;18.926;2022-12-16T02:46:43;97373.06;;;-1.99;96.33
41624;BME280;27319;50.306;18.926;2022-12-16T02:50:25;97360.88;;;-2.00;96.26
41624;BME280;27319;50.306;18.926;2022-12-16T02:54:23;97363.16;;;-1.95;96.15
41624;BME280;27319;50.306;18.926;2022-12-16T03:02:23;97354.56;;;-1.97;96.39
41624;BME280;27319;50.306;18.926;2022-12-16T03:06:21;97339.59;;;-1.97;96.23
41624;BME280;27319;50.306;18.926;2022-12-16T03:10:27;97337.09;;;-1.98;96.28
41624;BME280;27319;50.306;18.926;2022-12-16T03:14:26;97333.75;;;-2.00;96.96
41624;BME280;27319;50.306;18.926;2022-12-16T03:18:27;97324.91;;;-1.99;96.60
41624;BME280;27319;50.306;18.926;2022-12-16T03:22:31;97324.66;;;-2.07;96.77
41624;BME280;27319;50.306;18.926;2022-12-16T03:33:58;97313.09;;;-1.94;97.29
41624;BME280;27319;50.306;18.926;2022-12-16T03:37:49;97297.19;;;-2.03;97.07
41624;BME280;27319;50.306;18.926;2022-12-16T03:41:49;97293.81;;;-2.05;97.04
41624;BME280;27319;50.306;18.926;2022-12-16T03:45:50;97294.66;;;-2.05;96.90
41624;BME280;27319;50.306;18.926;2022-12-16T03:49:50;97292.84;;;-2.04;97.10
41624;BME280;27319;50.306;18.926;2022-12-16T03:53:50;97290.50;;;-1.96;96.69
41624;BME280;27319;50.306;18.926;2022-12-16T03:57:51;97288.34;;;-2.02;96.97
41624;BME280;27319;50.306;18.926;2022-12-16T04:01:52;97294.41;;;-2.02;97.16
41624;BME280;27319;50.306;18.926;2022-12-16T04:05:32;97297.16;;;-2.14;97.39
41624;BME280;27319;50.306;18.926;2022-12-16T04:08:53;97289.88;;;-2.11;97.54
41624;BME280;27319;50.306;18.926;2022-12-16T04:12:54;97280.72;;;-1.94;96.95
41624;BME280;27319;50.306;18.926;2022-12-16T04:16:53;97293.63;;;-1.91;96.70
41624;BME280;27319;50.306;18.926;2022-12-16T04:20:53;97288.03;;;-1.87;96.69
41624;BME280;27319;50.306;18.926;2022-12-16T04:24:51;97285.75;;;-1.91;96.56
41624;BME280;27319;50.306;18.926;2022-12-16T04:28:52;97278.56;;;-1.89;96.71
41624;BME280;27319;50.306;18.926;2022-12-16T04:32:56;97289.41;;;-2.05;96.77
41624;BME280;27319;50.306;18.926;2022-12-16T04:36:53;97288.56;;;-2.05;96.88
41624;BME280;27319;50.306;18.926;2022-12-16T04:40:51;97288.56;;;-2.05;97.01
41624;BME280;27319;50.306;18.926;2022-12-16T04:44:50;97277.84;;;-2.02;96.84
41624;BME280;27319;50.306;18.926;2022-12-16T04:48:49;97280.91;;;-2.08;96.87
41624;BME280;27319;50.306;18.926;2022-12-16T04:52:49;97293.34;;;-1.99;96.33
41624;BME280;27319;50.306;18.926;2022-12-16T04:56:47;97294.66;;;-2.05;96.90
41624;BME280;27319;50.306;18.926;2022-12-16T05:00:47;97270.56;;;-1.99;96.67
41624;BME280;27319;50.306;18.926;2022-12-16T05:05:00;97267.53;;;-2.05;97.04
41624;BME280;27319;50.306;18.926;2022-12-16T05:08:39;97283.22;;;-1.93;96.73
41624;BME280;27319;50.306;18.926;2022-12-16T05:12:39;97273.88;;;-1.97;96.53
41624;BME280;27319;50.306;18.926;2022-12-16T05:16:18;97277.69;;;-2.12;96.75
41624;BME280;27319;50.306;18.926;2022-12-16T05:19:38;97282.25;;;-2.03;96.38
41624;BME280;27319;50.306;18.926;2022-12-16T05:22:57;97277.44;;;-2.09;96.67
41624;BME280;27319;50.306;18.926;2022-12-16T05:26:36;97268.59;;;-2.08;96.21
41624;BME280;27319;50.306;18.926;2022-12-16T05:30:35;97263.47;;;-2.09;96.20
41624;BME280;27319;50.306;18.926;2022-12-16T05:34:34;97256.75;;;-2.13;95.96
41624;BME280;27319;50.306;18.926;2022-12-16T05:38:34;97250.56;;;-2.12;96.05
41624;BME280;27319;50.306;18.926;2022-12-16T05:42:33;97257.63;;;-2.02;96.09
41624;BME280;27319;50.306;18.926;2022-12-16T05:46:32;97248.16;;;-2.15;95.74
41624;BME280;27319;50.306;18.926;2022-12-16T05:50:31;97242.41;;;-2.20;96.10
41624;BME280;27319;50.306;18.926;2022-12-16T05:54:30;97234.25;;;-2.28;96.27
41624;BME280;27319;50.306;18.926;2022-12-16T05:58:29;97234.53;;;-2.20;96.56
41624;BME280;27319;50.306;18.926;2022-12-16T06:02:29;97226.50;;;-2.30;96.64
41624;BME280;27319;50.306;18.926;2022-12-16T06:06:08;97237.28;;;-2.22;96.66
41624;BME280;27319;50.306;18.926;2022-12-16T06:09:48;97254.13;;;-2.13;96.35
41624;BME280;27319;50.306;18.926;2022-12-16T06:13:22;97254.59;;;-2.19;96.40
41624;BME280;27319;50.306;18.926;2022-12-16T06:17:01;97252.22;;;-2.11;96.38
41624;BME280;27319;50.306;18.926;2022-12-16T06:21:00;97233.00;;;-2.12;96.20
41624;BME280;27319;50.306;18.926;2022-12-16T06:25:00;97230.47;;;-2.13;96.23
41624;BME280;27319;50.306;18.926;2022-12-16T06:28:59;97234.25;;;-2.28;96.54
41624;BME280;27319;50.306;18.926;2022-12-16T06:32:58;97228.91;;;-2.16;96.22
41624;BME280;27319;50.306;18.926;2022-12-16T06:36:57;97221.09;;;-2.28;96.59
41624;BME280;27319;50.306;18.926;2022-12-16T06:40:56;97225.94;;;-2.11;96.37
41624;BME280;27319;50.306;18.926;2022-12-16T06:44:56;97230.69;;;-2.16;96.33
41624;BME280;27319;50.306;18.926;2022-12-16T06:48:55;97217.97;;;-2.33;96.17
41624;BME280;27319;50.306;18.926;2022-12-16T06:52:54;97224.63;;;-2.17;96.38
41624;BME280;27319;50.306;18.926;2022-12-16T06:56:54;97228.78;;;-2.25;96.33
41624;BME280;27319;50.306;18.926;2022-12-16T07:00:53;97225.09;;;-2.23;96.15
41624;BME280;27319;50.306;18.926;2022-12-16T07:04:52;97225.09;;;-2.23;96.22
41624;BME280;27319;50.306;18.926;2022-12-16T07:08:19;97211.56;;;-2.29;96.52
41624;BME280;27319;50.306;18.926;2022-12-16T07:11:38;97204.63;;;-2.30;96.70
41624;BME280;27319;50.306;18.926;2022-12-16T07:15:18;97209.44;;;-2.24;96.33
41624;BME280;27319;50.306;18.926;2022-12-16T07:19:17;97202.28;;;-2.11;96.14
41624;BME280;27319;50.306;18.926;2022-12-16T07:23:16;97206.91;;;-2.26;96.26
41624;BME280;27319;50.306;18.926;2022-12-16T07:26:55;97206.44;;;-2.20;96.43
41624;BME280;27319;50.306;18.926;2022-12-16T07:30:15;97209.69;;;-2.16;96.26
41624;BME280;27319;50.306;18.926;2022-12-16T07:33:55;97208.75;;;-2.15;96.00
41624;BME280;27319;50.306;18.926;2022-12-16T07:37:54;97196.31;;;-2.13;96.17
41624;BME280;27319;50.306;18.926;2022-12-16T07:41:54;97193.22;;;-2.07;95.99
41624;BME280;27319;50.306;18.926;2022-12-16T07:45:53;97195.47;;;-2.14;95.98
41624;BME280;27319;50.306;18.926;2022-12-16T07:49:52;97189.16;;;-2.11;96.07
41624;BME280;27319;50.306;18.926;2022-12-16T07:53:51;97180.09;;;-2.07;95.92
41624;BME280;27319;50.306;18.926;2022-12-16T07:57:31;97189.63;;;-2.06;96.16
41624;BME280;27319;50.306;18.926;2022-12-16T08:00:51;97197.31;;;-2.03;96.27
41624;BME280;27319;50.306;18.926;2022-12-16T08:04:30;97203.97;;;-2.10;96.26
41624;BME280;27319;50.306;18.926;2022-12-16T08:08:10;97205.66;;;-1.98;96.18
41624;BME280;27319;50.306;18.926;2022-12-16T08:11:49;97209.59;;;-2.04;96.52
41624;BME280;27319;50.306;18.926;2022-12-16T08:15:48;97223.13;;;-1.97;96.28
41624;BME280;27319;50.306;18.926;2022-12-16T08:19:48;97231.50;;;-1.92;96.19
41624;BME280;27319;50.306;18.926;2022-12-16T08:23:27;97234.09;;;-2.03;96.79
41624;BME280;27319;50.306;18.926;2022-12-16T08:26:46;97240.47;;;-1.95;96.62
41624;BME280;27319;50.306;18.926;2022-12-16T08:30:06;97232.59;;;-1.84;96.58
41624;BME280;27319;50.306;18.926;2022-12-16T08:33:45;97240.00;;;-1.89;96.39
41624;BME280;27319;50.306;18.926;2022-12-16T08:37:45;97232.44;;;-1.82;96.49
41624;BME280;27319;50.306;18.926;2022-12-16T08:41:44;97239.84;;;-1.87;96.68
41624;BME280;27319;50.306;18.926;2022-12-16T08:45:23;97250.38;;;-1.87;96.73
41624;BME280;27319;50.306;18.926;2022-12-16T08:48:43;97246.31;;;-1.91;96.89
41624;BME280;27319;50.306;18.926;2022-12-16T08:52:23;97253.13;;;-1.89;96.85
41624;BME280;27319;50.306;18.926;2022-12-16T08:56:22;97248.47;;;-1.85;97.13
41624;BME280;27319;50.306;18.926;2022-12-16T09:00:21;97238.66;;;-1.83;97.16
41624;BME280;27319;50.306;18.926;2022-12-16T09:03:56;97242.75;;;-1.79;97.15
41624;BME280;27319;50.306;18.926;2022-12-16T09:07:35;97255.31;;;-1.72;96.78
41624;BME280;27319;50.306;18.926;2022-12-16T09:11:34;97266.56;;;-1.70;96.55
41624;BME280;27319;50.306;18.926;2022-12-16T09:15:34;97269.56;;;-1.63;96.48
41624;BME280;27319;50.306;18.926;2022-12-16T09:19:33;97280.28;;;-1.77;97.01
41624;BME280;27319;50.306;18.926;2022-12-16T09:23:32;97300.84;;;-1.71;97.13
41624;BME280;27319;50.306;18.926;2022-12-16T09:27:32;97309.22;;;-1.66;97.12
41624;BME280;27319;50.306;18.926;2022-12-16T09:31:31;97316.88;;;-1.74;97.10
41624;BME280;27319;50.306;18.926;2022-12-16T09:35:30;97320.22;;;-1.72;97.42
41624;BME280;27319;50.306;18.926;2022-12-16T09:39:30;97322.00;;;-1.73;97.28
41624;BME280;27319;50.306;18.926;2022-12-16T09:47:20;97318.56;;;-1.62;97.39
41624;BME280;27319;50.306;18.926;2022-12-16T09:51:16;97316.66;;;-1.60;97.06
41624;BME280;27319;50.306;18.926;2022-12-16T09:55:28;97329.09;;;-1.62;97.01
41624;BME280;27319;50.306;18.926;2022-12-16T09:59:35;97325.66;;;-1.52;97.06
41624;BME280;27319;50.306;18.926;2022-12-16T10:03:36;97327.09;;;-1.48;96.93
41624;BME280;27319;50.306;18.926;2022-12-16T10:07:32;97325.53;;;-1.50;97.12
41624;BME280;27319;50.306;18.926;2022-12-16T10:11:47;97323.63;;;-1.37;96.93
41624;BME280;27319;50.306;18.926;2022-12-16T10:26:15;97335.81;;;-1.36;96.60
41624;BME280;27319;50.306;18.926;2022-12-16T10:29:40;97330.59;;;-1.25;96.71
41624;BME280;27319;50.306;18.926;2022-12-16T10:33:21;97321.59;;;-1.34;96.42
41624;BME280;27319;50.306;18.926;2022-12-16T10:37:20;97316.59;;;-1.26;96.28
41624;BME280;27319;50.306;18.926;2022-12-16T10:41:19;97323.53;;;-1.25;96.06
41624;BME280;27319;50.306;18.926;2022-12-16T10:45:28;97327.25;;;-1.16;95.67
41624;BME280;27319;50.306;18.926;2022-12-16T10:49:23;97338.28;;;-1.00;95.88
41624;BME280;27319;50.306;18.926;2022-12-16T10:53:25;97333.94;;;-1.01;95.12
41624;BME280;27319;50.306;18.926;2022-12-16T11:01:24;97314.91;;;-1.05;94.49
41624;BME280;27319;50.306;18.926;2022-12-16T11:04:59;97313.25;;;-1.06;94.72
41624;BME280;27319;50.306;18.926;2022-12-16T11:08:48;97303.31;;;-1.02;95.08
41624;BME280;27319;50.306;18.926;2022-12-16T11:12:47;97291.47;;;-1.08;94.61
41624;BME280;27319;50.306;18.926;2022-12-16T11:16:46;97292.56;;;-0.99;94.11
41624;BME280;27319;50.306;18.926;2022-12-16T11:20:48;97311.31;;;-0.93;94.71
41624;BME280;27319;50.306;18.926;2022-12-16T11:24:45;97293.97;;;-0.84;93.82
41624;BME280;27319;50.306;18.926;2022-12-16T11:28:44;97289.53;;;-0.95;93.69
41624;BME280;27319;50.306;18.926;2022-12-16T11:32:25;97300.44;;;-0.99;93.32
41624;BME280;27319;50.306;18.926;2022-12-16T11:36:15;97298.75;;;-0.89;93.35
41624;BME280;27319;50.306;18.926;2022-12-16T11:40:14;97307.59;;;-1.01;93.36
41624;BME280;27319;50.306;18.926;2022-12-16T11:44:14;97336.47;;;-1.00;93.47
41624;BME280;27319;50.306;18.926;2022-12-16T11:48:35;97343.06;;;-1.05;93.67
41624;BME280;27319;50.306;18.926;2022-12-16T11:52:31;97356.47;;;-0.86;94.16
41624;BME280;27319;50.306;18.926;2022-12-16T11:56:35;97353.72;;;-0.85;93.29
41624;BME280;27319;50.306;18.926;2022-12-16T12:00:33;97337.06;;;-0.96;93.77
41624;BME280;27319;50.306;18.926;2022-12-16T12:04:52;97348.44;;;-0.96;93.50
41624;BME280;27319;50.306;18.926;2022-12-16T12:12:32;97361.22;;;-1.02;93.00
41624;BME280;27319;50.306;18.926;2022-12-16T12:16:19;97365.53;;;-1.01;93.00
41624;BME280;27319;50.306;18.926;2022-12-16T12:31:28;97373.91;;;-1.07;93.31
41624;BME280;27319;50.306;18.926;2022-12-16T12:39:40;97378.84;;;-0.92;93.04
41624;BME280;27319;50.306;18.926;2022-12-16T12:47:05;97395.97;;;-0.86;93.42
41624;BME280;27319;50.306;18.926;2022-12-16T12:55:03;97402.75;;;-1.06;93.89
41624;BME280;27319;50.306;18.926;2022-12-16T12:58:40;97399.66;;;-0.89;93.71
41624;BME280;27319;50.306;18.926;2022-12-16T13:02:22;97393.81;;;-0.92;93.51
41624;BME280;27319;50.306;18.926;2022-12-16T13:06:20;97401.69;;;-1.03;93.20
41624;BME280;27319;50.306;18.926;2022-12-16T13:13:57;97415.31;;;-1.20;93.49
41624;BME280;27319;50.306;18.926;2022-12-16T13:26:17;97420.47;;;-1.19;93.63
41624;BME280;27319;50.306;18.926;2022-12-16T13:33:04;97443.28;;;-1.19;93.78
41624;BME280;27319;50.306;18.926;2022-12-16T13:36:59;97453.13;;;-1.21;94.29
41624;BME280;27319;50.306;18.926;2022-12-16T13:48:15;97451.56;;;-1.24;94.41
41624;BME280;27319;50.306;18.926;2022-12-16T13:55:24;97485.00;;;-1.37;94.14
41624;BME280;27319;50.306;18.926;2022-12-16T13:59:23;97501.41;;;-1.33;93.85
41624;BME280;27319;50.306;18.926;2022-12-16T14:03:24;97510.56;;;-1.15;93.99
41624;BME280;27319;50.306;18.926;2022-12-16T14:07:21;97514.56;;;-1.33;93.52
41624;BME280;27319;50.306;18.926;2022-12-16T14:11:22;97517.31;;;-1.35;93.63
41624;BME280;27319;50.306;18.926;2022-12-16T14:15:23;97525.66;;;-1.41;93.88
41624;BME280;27319;50.306;18.926;2022-12-16T14:26:30;97508.28;;;-1.43;93.24
41624;BME280;27319;50.306;18.926;2022-12-16T14:30:32;97504.19;;;-1.47;93.61
41624;BME280;27319;50.306;18.926;2022-12-16T14:34:32;97496.81;;;-1.42;93.43
41624;BME280;27319;50.306;18.926;2022-12-16T14:37:52;97509.91;;;-1.53;93.23
41624;BME280;27319;50.306;18.926;2022-12-16T14:41:12;97505.16;;;-1.48;93.83
41624;BME280;27319;50.306;18.926;2022-12-16T14:48:56;97527.59;;;-1.55;93.22
41624;BME280;27319;50.306;18.926;2022-12-16T14:53:14;97539.28;;;-1.59;93.34
41624;BME280;27319;50.306;18.926;2022-12-16T14:57:19;97567.47;;;-1.49;93.51
41624;BME280;27319;50.306;18.926;2022-12-16T15:01:16;97572.09;;;-1.52;93.23
41624;BME280;27319;50.306;18.926;2022-12-16T15:05:01;97579.28;;;-1.54;93.17
41624;BME280;27319;50.306;18.926;2022-12-16T15:09:02;97584.31;;;-1.51;93.82
41624;BME280;27319;50.306;18.926;2022-12-16T15:12:22;97585.25;;;-1.52;92.67
41624;BME280;27319;50.306;18.926;2022-12-16T15:16:23;97596.13;;;-1.57;93.11
41624;BME280;27319;50.306;18.926;2022-12-16T15:20:29;97590.41;;;-1.51;93.44
41624;BME280;27319;50.306;18.926;2022-12-16T15:24:21;97591.03;;;-1.47;93.33
41624;BME280;27319;50.306;18.926;2022-12-16T15:28:36;97601.03;;;-1.52;93.52
41624;BME280;27319;50.306;18.926;2022-12-16T15:36:04;97624.84;;;-1.54;92.94
41624;BME280;27319;50.306;18.926;2022-12-16T15:40:03;97635.47;;;-1.55;93.86
41624;BME280;27319;50.306;18.926;2022-12-16T15:44:03;97633.56;;;-1.53;93.51
41624;BME280;27319;50.306;18.926;2022-12-16T15:48:19;97646.44;;;-1.61;92.96
41624;BME280;27319;50.306;18.926;2022-12-16T15:55:54;97653.66;;;-1.52;93.70
41624;BME280;27319;50.306;18.926;2022-12-16T15:59:30;97654.63;;;-1.53;93.60
41624;BME280;27319;50.306;18.926;2022-12-16T16:02:59;97654.94;;;-1.58;93.32
41624;BME280;27319;50.306;18.926;2022-12-16T16:06:51;97673.97;;;-1.54;93.86
41624;BME280;27319;50.306;18.926;2022-12-16T16:10:50;97676.09;;;-1.59;94.02
41624;BME280;27319;50.306;18.926;2022-12-16T16:14:50;97676.53;;;-1.65;94.47
41624;BME280;27319;50.306;18.926;2022-12-16T16:18:48;97680.53;;;-1.72;94.04
41624;BME280;27319;50.306;18.926;2022-12-16T16:22:48;97683.25;;;-1.61;94.21
41624;BME280;27319;50.306;18.926;2022-12-16T16:26:27;97678.63;;;-1.70;93.94
41624;BME280;27319;50.306;18.926;2022-12-16T16:30:08;97690.00;;;-1.70;94.26
41624;BME280;27319;50.306;18.926;2022-12-16T16:34:06;97693.56;;;-1.58;94.24
41624;BME280;27319;50.306;18.926;2022-12-16T16:38:08;97692.53;;;-1.68;94.13
41624;BME280;27319;50.306;18.926;2022-12-16T16:42:03;97690.00;;;-1.70;94.25
41624;BME280;27319;50.306;18.926;2022-12-16T16:46:06;97694.00;;;-1.64;94.40
41624;BME280;27319;50.306;18.926;2022-12-16T16:50:02;97696.94;;;-1.56;94.46
41624;BME280;27319;50.306;18.926;2022-12-16T16:54:01;97707.22;;;-1.41;94.15
41624;BME280;27319;50.306;18.926;2022-12-16T16:58:03;97723.69;;;-1.62;94.07
41624;BME280;27319;50.306;18.926;2022-12-16T17:01:59;97740.47;;;-1.52;94.32
41624;BME280;27319;50.306;18.926;2022-12-16T17:05:39;97724.94;;;-1.55;94.11
41624;BME280;27319;50.306;18.926;2022-12-16T17:09:18;97731.66;;;-1.51;94.21
41624;BME280;27319;50.306;18.926;2022-12-16T17:13:17;97743.66;;;-1.60;94.40
41624;BME280;27319;50.306;18.926;2022-12-16T17:17:17;97755.25;;;-1.62;94.47
41624;BME280;27319;50.306;18.926;2022-12-16T17:21:16;97758.50;;;-1.59;94.19
41624;BME280;27319;50.306;18.926;2022-12-16T17:24:59;97768.31;;;-1.61;94.10
41624;BME280;27319;50.306;18.926;2022-12-16T17:28:58;97792.19;;;-1.51;94.20
41624;BME280;27319;50.306;18.926;2022-12-16T17:32:57;97787.84;;;-1.52;93.94
41624;BME280;27319;50.306;18.926;2022-12-16T17:36:56;97798.16;;;-1.49;93.62
41624;BME280;27319;50.306;18.926;2022-12-16T17:40:56;97792.91;;;-1.62;93.89
41624;BME280;27319;50.306;18.926;2022-12-16T17:44:35;97801.84;;;-1.64;94.20
41624;BME280;27319;50.306;18.926;2022-12-16T17:47:55;97802.38;;;-1.72;93.26
41624;BME280;27319;50.306;18.926;2022-12-16T17:51:15;97788.38;;;-1.72;93.35
41624;BME280;27319;50.306;18.926;2022-12-16T17:54:54;97789.97;;;-1.70;93.82
41624;BME280;27319;50.306;18.926;2022-12-16T17:58:51;97799.31;;;-1.78;93.74
41624;BME280;27319;50.306;18.926;2022-12-16T18:02:51;97809.84;;;-1.78;93.27
41624;BME280;27319;50.306;18.926;2022-12-16T18:06:30;97813.72;;;-1.71;93.79
41624;BME280;27319;50.306;18.926;2022-12-16T18:10:09;97822.13;;;-1.79;93.73
41624;BME280;27319;50.306;18.926;2022-12-16T18:13:49;97811.84;;;-1.82;93.55
41624;BME280;27319;50.306;18.926;2022-12-16T18:17:08;97817.09;;;-1.82;93.37
41624;BME280;27319;50.306;18.926;2022-12-16T18:20:27;97824.97;;;-1.82;93.56
41624;BME280;27319;50.306;18.926;2022-12-16T18:23:47;97805.72;;;-1.82;93.83
41624;BME280;27319;50.306;18.926;2022-12-16T18:27:06;97814.13;;;-1.90;93.82
41624;BME280;27319;50.306;18.926;2022-12-16T18:30:46;97822.25;;;-1.80;94.14
41624;BME280;27319;50.306;18.926;2022-12-16T18:34:35;97822.75;;;-1.88;94.04
41624;BME280;27319;50.306;18.926;2022-12-16T18:37:55;97822.53;;;-1.97;94.09
41624;BME280;27319;50.306;18.926;2022-12-16T18:41:39;97823.81;;;-1.90;94.44
41624;BME280;27319;50.306;18.926;2022-12-16T18:45:34;97835.97;;;-2.02;94.02
41624;BME280;27319;50.306;18.926;2022-12-16T18:49:33;97837.41;;;-1.84;93.86
41624;BME280;27319;50.306;18.926;2022-12-16T18:53:32;97838.13;;;-1.82;94.09
41624;BME280;27319;50.306;18.926;2022-12-16T18:57:32;97834.66;;;-1.95;94.53
41624;BME280;27319;50.306;18.926;2022-12-16T19:01:31;97857.63;;;-1.98;94.52
41624;BME280;27319;50.306;18.926;2022-12-16T19:05:11;97861.44;;;-2.02;94.73
41624;BME280;27319;50.306;18.926;2022-12-16T19:08:30;97860.41;;;-1.87;94.91
41624;BME280;27319;50.306;18.926;2022-12-16T19:11:50;97866.69;;;-2.02;94.95
41624;BME280;27319;50.306;18.926;2022-12-16T19:15:09;97869.41;;;-2.04;95.36
41624;BME280;27319;50.306;18.926;2022-12-16T19:18:49;97869.00;;;-1.98;95.37
41624;BME280;27319;50.306;18.926;2022-12-16T19:22:48;97877.75;;;-1.97;95.21
41624;BME280;27319;50.306;18.926;2022-12-16T19:26:47;97878.72;;;-1.86;95.01
41624;BME280;27319;50.306;18.926;2022-12-16T19:31:04;97879.06;;;-2.04;95.29
41624;BME280;27319;50.306;18.926;2022-12-16T19:35:03;97890.66;;;-2.07;95.91
41624;BME280;27319;50.306;18.926;2022-12-16T19:39:02;97885.50;;;-2.08;95.70
41624;BME280;27319;50.306;18.926;2022-12-16T19:43:02;97897.06;;;-1.98;95.65
41624;BME280;27319;50.306;18.926;2022-12-16T19:47:01;97908.34;;;-1.96;95.88
41624;BME280;27319;50.306;18.926;2022-12-16T19:51:00;97908.50;;;-2.12;96.07
41624;BME280;27319;50.306;18.926;2022-12-16T19:55:00;97929.78;;;-2.02;96.03
41624;BME280;27319;50.306;18.926;2022-12-16T19:58:58;97928.91;;;-2.15;96.01
41624;BME280;27319;50.306;18.926;2022-12-16T20:02:58;97940.72;;;-2.22;96.38
41624;BME280;27319;50.306;18.926;2022-12-16T20:06:37;97933.94;;;-2.12;96.75
41624;BME280;27319;50.306;18.926;2022-12-16T20:09:57;97942.31;;;-2.20;96.39
41624;BME280;27319;50.306;18.926;2022-12-16T20:13:16;97946.38;;;-2.28;96.70
41624;BME280;27319;50.306;18.926;2022-12-16T20:16:36;97953.78;;;-2.21;96.71
41624;BME280;27319;50.306;18.926;2022-12-16T20:19:56;97961.19;;;-2.27;96.63
41624;BME280;27319;50.306;18.926;2022-12-16T20:23:15;97955.22;;;-2.03;96.63
41624;BME280;27319;50.306;18.926;2022-12-16T20:26:36;97963.25;;;-2.18;96.43
41624;BME280;27319;50.306;18.926;2022-12-16T20:30:15;97954.06;;;-2.25;96.70
41624;BME280;27319;50.306;18.926;2022-12-16T20:34:14;97948.22;;;-2.16;96.69
41624;BME280;27319;50.306;18.926;2022-12-16T20:38:14;97971.59;;;-2.12;96.67
41624;BME280;27319;50.306;18.926;2022-12-16T20:42:13;97957.69;;;-2.14;96.23
41624;BME280;27319;50.306;18.926;2022-12-16T20:46:15;97972.66;;;-2.28;96.47
41624;BME280;27319;50.306;18.926;2022-12-16T20:50:14;97979.75;;;-2.16;96.26
41624;BME280;27319;50.306;18.926;2022-12-16T20:54:14;97991.59;;;-2.09;96.21
41624;BME280;27319;50.306;18.926;2022-12-16T20:58:16;97989.69;;;-2.07;95.85
41624;BME280;27319;50.306;18.926;2022-12-16T21:01:55;98004.31;;;-2.30;95.64
41624;BME280;27319;50.306;18.926;2022-12-16T21:05:14;98020.50;;;-2.23;96.01
41624;BME280;27319;50.306;18.926;2022-12-16T21:08:54;98016.56;;;-2.16;96.27
41624;BME280;27319;50.306;18.926;2022-12-16T21:12:54;97994.50;;;-2.14;96.21
41624;BME280;27319;50.306;18.926;2022-12-16T21:16:53;98001.00;;;-2.33;95.94
41624;BME280;27319;50.306;18.926;2022-12-16T21:20:53;98015.47;;;-2.26;96.46
41624;BME280;27319;50.306;18.926;2022-12-16T21:24:51;98034.03;;;-2.29;95.83
41624;BME280;27319;50.306;18.926;2022-12-16T21:28:50;98035.16;;;-2.33;96.39
41624;BME280;27319;50.306;18.926;2022-12-16T21:32:50;98031.03;;;-2.23;96.22
41624;BME280;27319;50.306;18.926;2022-12-16T21:36:50;98029.72;;;-2.30;95.93
41624;BME280;27319;50.306;18.926;2022-12-16T21:40:50;98039.47;;;-2.18;96.25
41624;BME280;27319;50.306;18.926;2022-12-16T21:44:49;98031.41;;;-2.29;96.01
41624;BME280;27319;50.306;18.926;2022-12-16T21:48:48;98032.66;;;-2.35;96.01
41624;BME280;27319;50.306;18.926;2022-12-16T21:52:47;98029.91;;;-2.33;96.09
41624;BME280;27319;50.306;18.926;2022-12-16T21:56:46;98035.91;;;-2.45;96.20
41624;BME280;27319;50.306;18.926;2022-12-16T22:00:42;98048.97;;;-2.30;96.62
41624;BME280;27319;50.306;18.926;2022-12-16T22:04:21;98050.38;;;-2.24;95.82
41624;BME280;27319;50.306;18.926;2022-12-16T22:08:24;98050.75;;;-2.30;96.04